Time;durP1;ratioP1;P1;durP2;ratioP2;P2;SDS_P1;SDS_P2;PMS_P1;PMS_P2;Temp;Humidity;BMP_temperature;BMP_pressure;BME280_temperature;BME280_humidity;BME280_pressure;Samples;Min_cycle;Max_cycle;Signal;HPM_P1;HPM_P2
2023/09/12 00:01:44;;;;;;;9.10;3.97;;;;;;;20.84;100.00;100012.16;4942716;28;20806;-60
2023/09/12 00:04:40;;;;;;;9.23;3.63;;;;;;;20.93;100.00;100020.47;4957079;28;20285;-60
2023/09/12 00:14:47;;;;;;;10.15;5.70;;;;;;;21.06;100.00;100002.81;4879377;29;20324;-59
2023/09/12 00:17:46;;;;;;;8.80;4.40;;;;;;;21.49;100.00;100038.13;4877540;29;20067;-59
2023/09/12 00:21:04;;;;;;;6.87;3.97;;;;;;;21.64;100.00;100032.72;4881578;29;20052;-60
2023/09/12 00:27:41;;;;;;;8.37;3.63;;;;;;;21.73;100.00;100010.88;4932113;28;20317;-59
2023/09/12 00:30:32;;;;;;;7.63;3.60;;;;;;;21.85;100.00;100031.31;4956512;28;20042;-60
2023/09/12 00:33:10;;;;;;;8.50;4.23;;;;;;;21.84;100.00;100037.59;4974250;28;20049;-57
2023/09/12 00:35:59;;;;;;;8.47;3.70;;;;;;;21.81;100.00;100043.09;4986566;28;20073;-58
2023/09/12 00:39:27;;;;;;;10.80;4.00;;;;;;;21.74;100.00;100039.16;4976151;28;20075;-60
2023/09/12 00:42:39;;;;;;;9.93;4.07;;;;;;;21.73;100.00;100050.75;4908923;28;20134;-59
2023/09/12 00:45:53;;;;;;;9.50;4.27;;;;;;;21.52;100.00;99992.72;4917190;29;20137;-59
2023/09/12 00:48:46;;;;;;;9.80;3.67;;;;;;;21.82;100.00;100047.50;4954151;28;20098;-58
2023/09/12 00:51:32;;;;;;;10.47;3.93;;;;;;;21.86;100.00;100046.31;4947815;28;20060;-59
2023/09/12 00:55:06;;;;;;;8.80;3.53;;;;;;;21.97;100.00;100045.63;4947550;28;20093;-58
2023/09/12 00:58:41;;;;;;;7.43;3.30;;;;;;;22.02;100.00;100037.31;4873343;29;20063;-59
2023/09/12 01:04:27;;;;;;;7.83;2.83;;;;;;;22.18;100.00;100022.84;4896250;29;20152;-59
2023/09/12 01:15:02;;;;;;;5.17;1.97;;;;;;;22.28;100.00;100020.44;4877161;29;20132;-60
2023/09/12 01:18:18;;;;;;;3.77;2.07;;;;;;;22.32;100.00;100024.63;4936864;28;20134;-58
2023/09/12 01:21:27;;;;;;;6.87;2.33;;;;;;;22.43;100.00;100004.38;4913895;28;20051;-61
2023/09/12 01:24:38;;;;;;;8.67;1.80;;;;;;;22.52;100.00;100011.72;4934929;28;20078;-61
2023/09/12 01:27:49;;;;;;;4.57;1.70;;;;;;;22.66;100.00;100022.25;4941387;28;20065;-60
2023/09/12 01:30:32;;;;;;;5.33;1.50;;;;;;;22.69;100.00;100016.72;4955609;28;20058;-58
2023/09/12 01:33:25;;;;;;;5.97;1.57;;;;;;;22.72;100.00;100016.50;5015625;28;20056;-59
2023/09/12 01:37:08;;;;;;;;;;;;;;;;;;;;;
2023/09/12 01:40:48;;;;;;;3.63;1.30;;;;;;;23.11;100.00;100022.59;4973215;28;20543;-57
2023/09/12 01:47:44;;;;;;;4.17;1.30;;;;;;;23.19;100.00;100014.94;4796501;29;20054;-57
2023/09/12 01:57:49;;;;;;;3.43;1.73;;;;;;;23.30;100.00;100026.63;4771237;29;20318;-59
2023/09/12 02:26:16;;;;;;;6.17;1.37;;;;;;;23.36;100.00;99996.81;4805554;29;20177;-61
2023/09/12 02:28:49;;;;;;;7.03;1.20;;;;;;;23.56;100.00;100022.84;4832605;29;20190;-60
2023/09/12 02:31:22;;;;;;;4.13;1.40;;;;;;;23.53;100.00;100017.75;4947936;28;20046;-59
2023/09/12 02:34:17;;;;;;;4.37;1.50;;;;;;;23.52;100.00;100010.72;4963051;28;20045;-59
2023/09/12 02:36:48;;;;;;;4.10;1.40;;;;;;;23.53;100.00;100017.75;5043159;28;20139;-60
2023/09/12 02:39:26;;;;;;;3.67;1.33;;;;;;;23.45;100.00;100014.81;4984590;28;20052;-61
2023/09/12 02:45:39;;;;;;;3.10;0.90;;;;;;;23.31;100.00;100033.63;5023444;28;20055;-62
2023/09/12 02:51:12;;;;;;;3.80;0.90;;;;;;;23.22;100.00;100041.34;5014190;28;20144;-58
2023/09/12 02:53:48;;;;;;;2.63;1.30;;;;;;;23.17;100.00;100054.16;5025931;28;20435;-60
2023/09/12 02:56:18;;;;;;;5.17;1.80;;;;;;;23.20;100.00;100059.25;5015586;28;20053;-58
2023/09/12 02:58:58;;;;;;;4.23;1.10;;;;;;;23.17;100.00;100064.81;5037121;28;20052;-59
2023/09/12 03:01:31;;;;;;;3.40;0.97;;;;;;;23.09;100.00;100063.66;5031407;28;20155;-57
2023/09/12 03:04:17;;;;;;;2.53;0.90;;;;;;;23.02;100.00;100065.94;5042043;28;20320;-58
2023/09/12 03:07:28;;;;;;;4.13;0.90;;;;;;;23.01;100.00;100074.88;5035829;28;20056;-59
2023/09/12 03:18:29;;;;;;;2.13;0.50;;;;;;;22.85;100.00;100071.56;4864441;29;20126;-60
2023/09/12 03:21:26;;;;;;;3.27;0.70;;;;;;;22.81;100.00;100074.44;4876082;29;20114;-60
2023/09/12 03:24:10;;;;;;;3.13;0.73;;;;;;;22.75;100.00;100071.34;4872285;29;20404;-58
2023/09/12 03:54:09;;;;;;;4.53;1.00;;;;;;;22.29;100.00;100030.16;4984859;28;20667;-62
2023/09/12 03:56:40;;;;;;;5.13;0.83;;;;;;;22.25;100.00;100033.97;4983933;28;20058;-61
2023/09/12 03:59:14;;;;;;;2.80;0.90;;;;;;;22.25;100.00;100033.97;4972870;28;20088;-62
2023/09/12 04:01:45;;;;;;;3.93;0.63;;;;;;;22.27;100.00;100042.72;4989241;28;20041;-61
2023/09/12 04:04:15;;;;;;;2.57;0.70;;;;;;;22.26;100.00;100030.34;5049603;28;20467;-60
2023/09/12 04:06:46;;;;;;;3.07;0.60;;;;;;;22.30;100.00;100039.81;5069579;28;20414;-59
2023/09/12 04:09:18;;;;;;;2.00;1.00;;;;;;;22.34;100.00;100038.66;5060279;28;20048;-61
2023/09/12 04:11:49;;;;;;;1.47;0.63;;;;;;;22.33;100.00;100028.97;5070455;28;20093;-60
2023/09/12 04:14:23;;;;;;;5.07;0.80;;;;;;;22.32;100.00;100027.28;5059012;28;20057;-60
2023/09/12 04:16:54;;;;;;;1.10;0.70;;;;;;;22.39;100.00;100030.38;5069243;28;20413;-60
2023/09/12 04:19:25;;;;;;;1.27;0.57;;;;;;;22.45;100.00;100035.25;5061332;28;20763;-61
2023/09/12 04:21:55;;;;;;;3.10;0.90;;;;;;;22.50;100.00;100032.28;5070817;28;20209;-61
2023/09/12 04:24:28;;;;;;;3.63;0.80;;;;;;;22.60;100.00;100038.66;5058946;28;20052;-59
2023/09/12 04:26:58;;;;;;;4.40;1.00;;;;;;;22.61;100.00;100033.25;5070136;28;20447;-60
2023/09/12 04:29:29;;;;;;;4.23;0.80;;;;;;;22.61;99.89;100029.69;5058507;28;20082;-59
2023/09/12 04:31:59;;;;;;;2.50;0.60;;;;;;;22.55;98.43;100030.16;5068830;28;20052;-60
2023/09/12 04:34:30;;;;;;;1.67;0.70;;;;;;;22.23;98.76;99980.00;5059761;28;20338;-61
2023/09/12 04:37:02;;;;;;;2.30;0.80;;;;;;;22.46;98.93;100010.31;5068791;28;20051;-59
2023/09/12 04:39:34;;;;;;;2.93;0.80;;;;;;;22.47;98.49;100022.69;5062407;28;20131;-60
2023/09/12 04:42:06;;;;;;;1.63;0.80;;;;;;;22.39;98.11;100015.25;5063831;28;20055;-60
2023/09/12 04:44:37;;;;;;;1.77;0.57;;;;;;;22.41;98.05;100023.09;5073129;28;20129;-60
2023/09/12 04:47:09;;;;;;;2.37;0.70;;;;;;;22.39;98.76;100025.03;5062507;28;20136;-57
2023/09/12 04:49:40;;;;;;;2.73;0.90;;;;;;;22.33;99.19;100025.44;5073300;28;20062;-61
2023/09/12 04:52:10;;;;;;;2.97;0.70;;;;;;;22.28;99.41;100028.44;5061988;28;20043;-60
2023/09/12 04:54:42;;;;;;;4.87;0.90;;;;;;;22.25;99.08;100018.00;5057986;28;20059;-60
2023/09/12 04:57:13;;;;;;;2.43;1.20;;;;;;;22.23;98.93;100022.56;5038795;28;20052;-59
2023/09/12 04:59:44;;;;;;;3.30;1.20;;;;;;;22.16;98.73;100018.59;5052236;28;20067;-60
2023/09/12 05:02:15;;;;;;;4.33;0.77;;;;;;;22.09;98.33;100022.63;5041539;28;20064;-59
2023/09/12 05:04:46;;;;;;;3.17;0.80;;;;;;;22.01;98.81;100009.00;5051768;28;20076;-60
2023/09/12 05:07:16;;;;;;;2.43;0.90;;;;;;;21.96;98.80;100011.97;5041076;28;20040;-60
2023/09/12 05:09:48;;;;;;;3.07;1.20;;;;;;;21.93;99.08;100013.03;5052510;28;20149;-60
2023/09/12 05:12:19;;;;;;;5.17;1.30;;;;;;;21.92;99.35;100016.66;5041492;28;20083;-61
2023/09/12 05:14:50;;;;;;;4.97;1.10;;;;;;;21.90;99.81;100013.25;5051891;28;20052;-60
2023/09/12 05:17:21;;;;;;;4.60;1.13;;;;;;;21.90;100.00;100026.53;5043141;28;20052;-58
2023/09/12 05:19:51;;;;;;;3.40;1.00;;;;;;;21.89;100.00;100032.84;5052866;28;20119;-60
2023/09/12 05:22:22;;;;;;;3.17;0.80;;;;;;;21.91;100.00;100030.91;5041278;28;20125;-59
2023/09/12 05:24:54;;;;;;;1.33;0.97;;;;;;;21.93;100.00;100034.31;5052152;28;20041;-60
2023/09/12 05:27:25;;;;;;;2.10;0.90;;;;;;;21.93;100.00;100044.94;5042749;28;20133;-60
2023/09/12 05:29:57;;;;;;;0.90;0.70;;;;;;;21.93;100.00;100044.94;5052392;28;20044;-61
2023/09/12 05:32:30;;;;;;;2.00;0.77;;;;;;;21.91;100.00;100041.53;5041692;28;20052;-60
2023/09/12 05:35:01;;;;;;;2.40;0.97;;;;;;;21.96;100.00;100049.22;5051323;28;20075;-58
2023/09/12 05:37:49;;;;;;;4.32;0.90;;;;;;;21.95;100.00;100043.03;5051297;28;20045;-60
2023/09/12 05:40:21;;;;;;;2.57;0.70;;;;;;;21.93;100.00;100044.94;5041254;28;20036;-60
2023/09/12 05:42:52;;;;;;;2.97;0.90;;;;;;;21.93;100.00;100034.31;5052033;28;20062;-61
2023/09/12 05:45:23;;;;;;;2.63;0.90;;;;;;;21.93;100.00;100038.78;5042480;28;20529;-61
2023/09/12 05:47:54;;;;;;;2.13;1.10;;;;;;;21.90;100.00;100031.88;5050838;28;20051;-62
2023/09/12 05:50:25;;;;;;;4.47;0.90;;;;;;;21.87;100.00;100034.72;5040442;28;20052;-62
2023/09/12 05:52:55;;;;;;;3.17;1.00;;;;;;;21.87;100.00;100045.38;5051297;28;20563;-61
2023/09/12 05:55:28;;;;;;;2.63;0.90;;;;;;;21.89;100.00;100043.47;5061218;28;20369;-61
2023/09/12 05:57:58;;;;;;;1.73;0.90;;;;;;;21.88;100.00;100035.59;5070657;28;20044;-60
2023/09/12 06:00:29;;;;;;;5.27;1.20;;;;;;;21.88;100.00;100036.44;5060742;28;20071;-60
2023/09/12 06:03:00;;;;;;;1.83;0.70;;;;;;;21.87;100.00;100045.38;5073246;28;20043;-61
2023/09/12 06:05:31;;;;;;;4.90;1.10;;;;;;;21.85;100.00;100041.13;5060013;28;20036;-60
2023/09/12 06:08:03;;;;;;;2.87;1.10;;;;;;;21.83;100.00;100043.88;5068122;28;20182;-60
2023/09/12 06:10:39;;;;;;;2.83;1.20;;;;;;;21.85;100.00;100036.63;5071690;28;20863;-61
2023/09/12 06:13:09;;;;;;;1.40;1.00;;;;;;;21.78;100.00;100040.66;5060846;28;20042;-60
2023/09/12 06:15:42;;;;;;;2.40;1.00;;;;;;;21.75;100.00;100035.56;5071925;28;20044;-59
2023/09/12 06:18:13;;;;;;;1.87;1.00;;;;;;;21.71;100.00;100026.91;5060859;28;20405;-60
2023/09/12 06:20:43;;;;;;;3.00;1.00;;;;;;;21.65;100.00;100023.81;5070525;28;20123;-60
2023/09/12 06:23:14;;;;;;;6.00;1.10;;;;;;;21.57;100.00;100015.47;5059233;28;20173;-59
2023/09/12 06:25:46;;;;;;;3.80;0.90;;;;;;;21.62;100.00;100018.72;5071835;28;20040;-60
2023/09/12 06:28:26;;;;;;;4.17;1.13;;;;;;;21.63;100.00;100010.63;5059643;28;20086;-60
2023/09/12 06:30:57;;;;;;;3.57;1.30;;;;;;;21.63;100.00;100009.78;5070604;28;20047;-60
2023/09/12 06:33:28;;;;;;;2.20;0.80;;;;;;;21.57;100.00;100002.19;5059841;28;20055;-60
2023/09/12 06:35:59;;;;;;;2.80;0.80;;;;;;;21.58;100.00;100009.22;5071675;28;20043;-60
2023/09/12 06:38:30;;;;;;;5.10;1.67;;;;;;;21.60;100.00;100009.97;5060325;28;20050;-60
2023/09/12 06:41:03;;;;;;;4.53;2.23;;;;;;;21.60;100.00;100004.66;5071411;28;20062;-60
2023/09/12 06:43:34;;;;;;;3.73;1.50;;;;;;;21.65;100.00;100007.88;5059080;28;20108;-60
2023/09/12 06:46:04;;;;;;;4.97;1.87;;;;;;;21.66;100.00;100005.09;5060509;28;20050;-59
2023/09/12 06:48:35;;;;;;;3.93;1.20;;;;;;;21.69;100.00;100014.66;5069346;28;20040;-59
2023/09/12 06:51:08;;;;;;;2.90;1.13;;;;;;;21.72;100.00;100017.16;5058303;28;20043;-58
2023/09/12 06:53:45;;;;;;;4.33;1.47;;;;;;;21.74;100.00;100012.56;5069511;28;20058;-58
2023/09/12 06:56:18;;;;;;;4.57;1.60;;;;;;;21.71;100.00;100018.09;5058964;28;20466;-58
2023/09/12 06:58:49;;;;;;;4.93;1.30;;;;;;;21.68;100.00;100026.28;5068120;28;20063;-58
2023/09/12 07:01:19;;;;;;;2.50;1.13;;;;;;;21.63;100.00;100036.38;5059205;28;20052;-58
2023/09/12 07:03:53;;;;;;;7.60;1.47;;;;;;;21.61;100.00;100032.94;5069288;28;20132;-59
2023/09/12 07:06:24;;;;;;;3.93;1.67;;;;;;;21.61;100.00;100048.91;5060320;28;20436;-58
2023/09/12 07:08:55;;;;;;;3.63;1.43;;;;;;;21.61;100.00;100051.56;5070168;28;20453;-59
2023/09/12 07:11:27;;;;;;;4.10;1.50;;;;;;;21.62;100.00;100061.25;5059072;28;20064;-58
2023/09/12 07:13:58;;;;;;;4.67;1.53;;;;;;;21.62;100.00;100066.56;5069116;28;20081;-59
2023/09/12 07:16:29;;;;;;;10.40;1.47;;;;;;;21.61;100.00;100059.53;5059490;28;20476;-59
2023/09/12 07:19:00;;;;;;;7.37;1.70;;;;;;;21.64;100.00;100064.63;5070318;28;20036;-59
2023/09/12 07:21:31;;;;;;;7.00;1.30;;;;;;;21.61;100.00;100056.88;5059797;28;20120;-58
2023/09/12 07:24:05;;;;;;;6.93;1.93;;;;;;;21.60;100.00;100065.81;5068336;28;20113;-59
2023/09/12 07:26:39;;;;;;;3.27;1.20;;;;;;;21.61;100.00;100059.53;5069528;28;20052;-60
2023/09/12 07:29:21;;;;;;;3.03;1.50;;;;;;;21.72;100.00;100057.88;5057990;28;20044;-60
2023/09/12 07:31:54;;;;;;;7.17;1.50;;;;;;;21.85;100.00;100052.59;5069967;28;20124;-60
2023/09/12 07:34:28;;;;;;;7.20;1.50;;;;;;;21.91;100.00;100052.19;5058487;28;20366;-59
2023/09/12 07:36:59;;;;;;;6.17;1.63;;;;;;;21.94;100.00;100044.00;5069866;28;20144;-59
2023/09/12 07:39:29;;;;;;;4.73;1.30;;;;;;;21.89;100.00;100046.13;5058414;28;20047;-60
2023/09/12 07:42:02;;;;;;;8.90;1.50;;;;;;;21.83;100.00;100037.69;5069611;28;20058;-60
2023/09/12 07:44:33;;;;;;;4.73;1.50;;;;;;;21.77;100.00;100033.66;5058383;28;20911;-60
2023/09/12 07:47:04;;;;;;;4.77;1.47;;;;;;;21.68;100.00;100042.22;5060609;28;20048;-60
2023/09/12 07:49:35;;;;;;;7.93;1.90;;;;;;;21.47;100.00;100016.09;5070352;28;20036;-59
2023/09/12 07:52:09;;;;;;;6.57;1.33;;;;;;;21.18;100.00;99961.31;5058991;28;20467;-58
2023/09/12 07:54:41;;;;;;;6.83;1.70;;;;;;;21.64;100.00;100040.72;5067720;28;20447;-60
2023/09/12 07:57:14;;;;;;;4.40;1.67;;;;;;;21.57;100.00;100032.31;5058174;28;20044;-59
2023/09/12 07:59:44;;;;;;;5.50;1.67;;;;;;;21.54;100.00;100033.38;5070047;28;20075;-59
2023/09/12 08:02:15;;;;;;;6.87;1.70;;;;;;;21.51;100.00;100033.53;5060027;28;20364;-58
2023/09/12 08:04:46;;;;;;;7.47;1.97;;;;;;;21.45;100.00;100039.28;5065133;28;20289;-57
2023/09/12 08:07:17;;;;;;;8.20;2.70;;;;;;;21.31;100.00;100031.31;5057538;28;20094;-58
2023/09/12 08:09:52;;;;;;;8.00;1.90;;;;;;;21.18;100.00;100025.94;5068965;28;20169;-57
2023/09/12 08:12:26;;;;;;;21.80;13.27;;;;;;;21.20;100.00;100036.47;5062342;28;20775;-59
2023/09/12 08:14:58;;;;;;;32.60;20.30;;;;;;;21.03;100.00;100019.78;5072884;28;20079;-58
2023/09/12 08:17:29;;;;;;;18.63;9.37;;;;;;;21.07;100.00;100033.75;5061784;28;20319;-58
2023/09/12 08:20:00;;;;;;;30.70;16.63;;;;;;;21.01;100.00;100044.75;5072233;28;20278;-57
2023/09/12 08:22:31;;;;;;;57.63;35.33;;;;;;;20.94;100.00;100054.91;5061828;28;20294;-58
2023/09/12 08:25:02;;;;;;;16.43;7.80;;;;;;;20.74;100.00;100026.09;5073191;28;20055;-58
2023/09/12 08:27:34;;;;;;;9.43;2.53;;;;;;;20.78;100.00;100038.22;5062386;28;20128;-58
2023/09/12 08:30:05;;;;;;;4.93;2.70;;;;;;;20.71;100.00;100042.22;5063198;28;20059;-59
2023/09/12 08:32:36;;;;;;;7.70;2.87;;;;;;;20.62;100.00;100044.50;5072193;28;20040;-58
2023/09/12 08:35:07;;;;;;;7.87;2.13;;;;;;;20.51;100.00;100030.97;5061497;28;20297;-59
2023/09/12 08:37:38;;;;;;;8.00;1.97;;;;;;;20.53;100.00;100049.47;5072402;28;20573;-59
2023/09/12 08:40:10;;;;;;;8.43;2.40;;;;;;;20.47;100.00;100046.25;5062547;28;20333;-58
2023/09/12 08:42:44;;;;;;;5.77;2.47;;;;;;;20.45;100.00;100052.59;5073150;28;20293;-58
2023/09/12 08:45:16;;;;;;;11.10;6.03;;;;;;;20.39;100.00;100047.66;5064685;28;20297;-59
2023/09/12 08:47:49;;;;;;;11.60;7.20;;;;;;;20.33;100.00;100051.53;5071198;28;20313;-59
2023/09/12 08:50:23;;;;;;;11.73;5.50;;;;;;;20.30;100.00;100058.84;5063393;28;20365;-58
2023/09/12 08:52:54;;;;;;;9.60;3.53;;;;;;;20.24;100.00;100065.34;5073161;28;20282;-58
2023/09/12 08:55:37;;;;;;;5.33;3.07;;;;;;;20.15;100.00;100056.16;5061293;28;20281;-58
2023/09/12 08:58:10;;;;;;;6.83;4.13;;;;;;;20.17;100.00;100067.53;5060786;28;20278;-59
2023/09/12 09:00:47;;;;;;;11.93;8.83;;;;;;;20.13;100.00;100063.34;5072338;28;20677;-58
2023/09/12 09:03:41;;;;;;;15.00;8.17;;;;;;;20.09;100.00;100061.81;5061508;28;20287;-57
2023/09/12 09:09:25;;;;;;;9.37;5.33;;;;;;;20.00;100.00;100063.22;5062500;28;20859;-59
2023/09/12 09:12:08;;;;;;;9.83;4.80;;;;;;;19.98;100.00;100074.84;5072303;28;20297;-58
2023/09/12 09:19:11;;;;;;;4.80;2.33;;;;;;;19.98;100.00;100085.47;5062581;28;20296;-58
2023/09/12 09:21:42;;;;;;;3.80;1.77;;;;;;;19.95;100.00;100091.78;5071498;28;20134;-57
2023/09/12 09:24:21;;;;;;;2.93;1.30;;;;;;;19.80;100.00;100077.63;5061864;28;20763;-59
2023/09/12 09:27:00;;;;;;;7.45;1.83;;;;;;;20.02;100.00;100106.41;5071613;28;20270;-59
2023/09/12 09:29:33;;;;;;;4.07;1.57;;;;;;;20.05;100.00;100105.38;5061380;28;20058;-59
2023/09/12 09:32:24;;;;;;;5.97;1.47;;;;;;;20.08;100.00;100102.53;5064210;28;20300;-58
2023/09/12 09:35:15;;;;;;;9.03;1.83;;;;;;;20.12;100.00;100097.91;5070545;28;20293;-59
2023/09/12 09:37:48;;;;;;;9.37;6.17;;;;;;;20.08;100.00;100097.25;5069881;28;20297;-58
2023/09/12 09:40:25;;;;;;;11.00;6.90;;;;;;;20.02;100.00;100102.91;5057840;28;20308;-58
2023/09/12 09:47:12;;;;;;;9.30;7.37;;;;;;;19.99;100.00;100103.06;5059963;28;20387;-59
2023/09/12 09:49:48;;;;;;;9.33;5.17;;;;;;;20.02;100.00;100114.38;5070849;28;20278;-59
2023/09/12 09:52:28;;;;;;;4.90;3.10;;;;;;;19.76;100.00;100070.78;5060638;28;20285;-56
2023/09/12 09:55:00;;;;;;;9.97;2.43;;;;;;;19.96;100.00;100113.88;5070479;28;20282;-58
2023/09/12 09:57:32;;;;;;;6.67;2.53;;;;;;;19.99;100.00;100126.94;5058458;28;20316;-56
2023/09/12 10:00:08;;;;;;;7.27;2.23;;;;;;;19.96;100.00;100129.78;5063478;28;20281;-58
2023/09/12 10:02:42;;;;;;;6.03;2.33;;;;;;;19.95;100.00;100122.78;5071546;28;20399;-58
2023/09/12 10:05:17;;;;;;;34.27;22.50;;;;;;;19.82;100.00;100118.16;5057369;28;20300;-58
2023/09/12 10:07:51;;;;;;;44.70;28.33;;;;;;;19.87;100.00;100136.47;5071068;28;20756;-58
2023/09/12 10:10:26;;;;;;;41.97;26.77;;;;;;;19.82;100.00;100144.69;5061149;28;20380;-59
2023/09/12 10:12:59;;;;;;;53.17;33.57;;;;;;;19.37;100.00;100079.19;5069584;28;20624;-59
2023/09/12 10:15:32;;;;;;;61.60;37.27;;;;;;;19.76;100.00;100147.66;5060669;28;20796;-59
2023/09/12 10:18:14;;;;;;;46.47;29.37;;;;;;;19.71;100.00;100147.06;5060020;28;20298;-58
2023/09/12 10:21:09;;;;;;;27.13;16.63;;;;;;;19.69;100.00;100164.84;5069203;28;20686;-58
2023/09/12 10:23:45;;;;;;;13.93;7.83;;;;;;;19.50;100.00;100127.91;5061501;28;20286;-57
2023/09/12 10:26:18;;;;;;;11.53;3.63;;;;;;;19.68;100.00;100163.16;5058492;28;20350;-59
2023/09/12 10:28:53;;;;;;;5.97;3.47;;;;;;;19.47;100.00;100132.50;5069775;28;20344;-57
2023/09/12 10:31:27;;;;;;;10.47;3.73;;;;;;;19.66;100.00;100170.28;5060188;28;20310;-58
2023/09/12 10:34:02;;;;;;;9.07;3.50;;;;;;;19.54;100.00;100160.38;5070848;28;20339;-58
2023/09/12 10:36:35;;;;;;;10.03;3.57;;;;;;;19.59;100.00;100158.31;5059498;28;20727;-58
2023/09/12 10:39:07;;;;;;;10.13;2.57;;;;;;;19.63;100.00;100170.47;5060102;28;20288;-58
2023/09/12 10:41:40;;;;;;;10.33;2.70;;;;;;;19.61;100.00;100156.44;5069760;28;20661;-58
2023/09/12 10:44:14;;;;;;;6.80;2.73;;;;;;;19.51;100.00;100142.00;5059306;28;20597;-59
2023/09/12 10:46:47;;;;;;;7.17;3.17;;;;;;;19.59;100.00;100163.63;5069788;28;20290;-59
2023/09/12 10:49:22;;;;;;;5.43;2.93;;;;;;;19.56;100.00;100158.50;5059041;28;20294;-58
2023/09/12 10:51:57;;;;;;;6.50;2.77;;;;;;;18.90;100.00;100053.53;5070844;28;20270;-58
2023/09/12 10:54:39;;;;;;;7.83;3.10;;;;;;;19.49;100.00;100151.81;5059255;28;20605;-59
2023/09/12 10:57:13;;;;;;;6.90;3.60;;;;;;;19.52;100.00;100167.53;5060785;28;20741;-58
2023/09/12 11:00:13;;;;;;;6.57;3.10;;;;;;;19.51;100.00;100171.16;5069787;28;20701;-58
2023/09/12 11:02:45;;;;;;;4.50;2.40;;;;;;;19.34;100.00;100132.31;5069656;28;20297;-58
2023/09/12 11:05:53;;;;;;;5.87;2.83;;;;;;;19.43;100.00;100160.97;5059570;28;20372;-58
2023/09/12 11:08:27;;;;;;;8.87;2.70;;;;;;;19.45;100.00;100167.03;5058840;28;20282;-57
2023/09/12 11:11:20;;;;;;;6.10;2.50;;;;;;;19.46;100.00;100173.19;5069991;28;20366;-58
2023/09/12 11:14:06;;;;;;;8.07;2.53;;;;;;;19.47;100.00;100173.13;5068734;28;20356;-59
2023/09/12 11:16:38;;;;;;;4.77;2.03;;;;;;;19.47;100.00;100175.78;5059563;28;20398;-58
2023/09/12 11:19:18;;;;;;;5.47;2.33;;;;;;;19.45;100.00;100176.81;5057571;28;20342;-58
2023/09/12 11:21:51;;;;;;;;;;;;;;;19.49;100.00;100178.31;5069768;28;21043;-59
2023/09/12 11:24:23;;;;;;;3.37;1.80;;;;;;;19.48;100.00;100176.63;5057650;28;19936;-58
2023/09/12 11:26:57;;;;;;;3.07;1.77;;;;;;;19.50;100.00;100169.44;5070626;28;20331;-58
2023/09/12 11:29:36;;;;;;;3.93;1.90;;;;;;;19.31;100.00;100149.25;5059026;28;20279;-59
2023/09/12 11:32:09;;;;;;;5.50;2.10;;;;;;;19.51;100.00;100177.28;5058422;28;20277;-58
2023/09/12 11:34:44;;;;;;;7.03;2.27;;;;;;;19.52;100.00;100181.69;5068186;28;20904;-57
2023/09/12 11:37:25;;;;;;;4.67;2.17;;;;;;;19.18;100.00;100116.41;5059606;28;20792;-57
2023/09/12 11:39:58;;;;;;;4.40;1.90;;;;;;;19.55;100.00;100167.41;5068012;28;20286;-58
2023/09/12 11:42:29;;;;;;;4.13;1.90;;;;;;;19.51;100.00;100156.09;5059182;28;20278;-59
2023/09/12 11:45:01;;;;;;;7.07;2.00;;;;;;;19.54;100.00;100166.53;5070334;28;20286;-58
2023/09/12 11:47:33;;;;;;;3.93;2.07;;;;;;;19.53;100.00;100174.56;5062211;28;20703;-58
2023/09/12 11:50:05;;;;;;;3.80;2.20;;;;;;;19.47;100.00;100170.47;5062046;28;20290;-59
2023/09/12 11:52:41;;;;;;;6.70;2.40;;;;;;;19.54;100.00;100186.88;5073602;28;20288;-59
2023/09/12 11:55:12;;;;;;;5.80;2.23;;;;;;;19.55;100.00;100188.59;5061538;28;20282;-58
2023/09/12 11:57:44;;;;;;;6.17;2.30;;;;;;;19.55;100.00;100184.16;5073439;28;20387;-57
2023/09/12 12:00:19;;;;;;;5.27;2.40;;;;;;;19.57;100.00;100186.72;5064458;28;20294;-58
2023/09/12 12:02:51;;;;;;;5.17;2.37;;;;;;;19.53;100.00;100169.28;5072387;28;20484;-59
2023/09/12 12:05:23;;;;;;;7.63;2.80;;;;;;;19.53;100.00;100169.28;5064294;28;20455;-58
2023/09/12 12:07:57;;;;;;;5.73;2.87;;;;;;;19.60;100.00;100170.66;5071812;28;20302;-59
2023/09/12 12:10:52;;;;;;;8.53;2.63;;;;;;;19.38;100.00;100132.06;5073963;28;20285;-59
2023/09/12 12:13:24;;;;;;;5.53;2.73;;;;;;;19.61;100.00;100188.25;5063589;28;20646;-57
2023/09/12 12:15:56;;;;;;;4.83;3.33;;;;;;;19.61;100.00;100182.94;5073107;28;20282;-59
2023/09/12 12:18:28;;;;;;;8.57;3.90;;;;;;;19.61;100.00;100189.09;5064138;28;20771;-59
2023/09/12 12:21:00;;;;;;;7.43;3.77;;;;;;;19.38;100.00;100150.63;5074047;28;20770;-59
2023/09/12 12:23:33;;;;;;;9.60;4.60;;;;;;;19.58;100.00;100183.13;5062642;28;20280;-59
2023/09/12 12:26:10;;;;;;;7.77;4.10;;;;;;;19.55;100.00;100185.94;5062104;28;20276;-57
2023/09/12 12:28:43;;;;;;;9.67;3.80;;;;;;;19.53;100.00;100174.56;5072093;28;20305;-58
2023/09/12 12:31:16;;;;;;;7.60;3.50;;;;;;;19.51;100.00;100173.81;5063472;28;20292;-56
2023/09/12 12:33:51;;;;;;;6.60;3.23;;;;;;;19.28;100.00;100154.72;5073697;28;20372;-59
2023/09/12 12:36:44;;;;;;;7.80;3.13;;;;;;;19.46;100.00;100189.09;5061948;28;20305;-58
2023/09/12 12:39:27;;;;;;;9.60;3.00;;;;;;;19.44;100.00;100175.06;5061981;28;20286;-59
2023/09/12 12:41:59;;;;;;;6.97;2.40;;;;;;;19.43;100.00;100173.38;5073921;28;20288;-59
2023/09/12 12:44:40;;;;;;;8.07;2.63;;;;;;;19.18;100.00;100129.66;5062295;28;20285;-59
2023/09/12 12:47:12;;;;;;;8.17;2.77;;;;;;;19.42;100.00;100161.03;5060724;28;20280;-58
2023/09/12 12:49:44;;;;;;;6.37;2.50;;;;;;;19.43;100.00;100162.78;5072550;28;20304;-58
2023/09/12 12:52:15;;;;;;;7.63;2.10;;;;;;;19.43;100.00;100168.06;5062196;28;20380;-58
2023/09/12 12:54:49;;;;;;;5.83;2.60;;;;;;;19.32;100.00;100144.78;5073988;28;20277;-58
2023/09/12 12:57:22;;;;;;;3.63;2.27;;;;;;;19.35;100.00;100150.78;5061661;28;20347;-58
2023/09/12 12:59:55;;;;;;;6.27;2.40;;;;;;;19.38;100.00;100160.38;5073680;28;21108;-58
2023/09/12 13:02:27;;;;;;;5.40;2.30;;;;;;;19.29;100.00;100147.63;5061707;28;21179;-59
2023/09/12 13:04:58;;;;;;;4.40;2.10;;;;;;;19.39;100.00;100168.25;5072623;28;20364;-58
2023/09/12 13:07:30;;;;;;;9.90;2.47;;;;;;;19.42;100.00;100161.03;5062443;28;20365;-57
2023/09/12 13:10:04;;;;;;;7.20;2.73;;;;;;;19.36;100.00;100147.19;5072517;28;20314;-57
2023/09/12 13:12:37;;;;;;;5.23;2.23;;;;;;;19.43;100.00;100160.13;5062592;28;20387;-58
2023/09/12 13:15:10;;;;;;;4.53;2.00;;;;;;;19.42;100.00;100161.03;5063879;28;20716;-60
2023/09/12 13:17:42;;;;;;;6.00;1.93;;;;;;;19.34;100.00;100154.38;5071824;28;20352;-60
2023/09/12 13:20:14;;;;;;;8.40;2.20;;;;;;;19.38;100.00;100157.72;5060547;28;20292;-58
2023/09/12 13:22:46;;;;;;;6.33;2.13;;;;;;;19.36;100.00;100151.63;5069713;28;20386;-59
2023/09/12 13:25:20;;;;;;;4.40;2.20;;;;;;;19.38;100.00;100163.88;5062014;28;20282;-60
2023/09/12 13:27:53;;;;;;;9.53;2.40;;;;;;;19.35;100.00;100158.75;5071231;28;20783;-59
2023/09/12 13:30:25;;;;;;;6.90;2.00;;;;;;;19.35;100.00;100160.53;5061215;28;20355;-58
2023/09/12 13:32:58;;;;;;;7.00;2.00;;;;;;;19.32;100.00;100166.88;5071810;28;20282;-60
2023/09/12 13:35:29;;;;;;;6.77;2.10;;;;;;;19.30;100.00;100158.13;5061995;28;20278;-57
2023/09/12 13:38:02;;;;;;;5.10;2.00;;;;;;;19.31;100.00;100159.00;5071651;28;20290;-59
2023/09/12 13:40:35;;;;;;;6.63;2.73;;;;;;;19.31;100.00;100156.34;5060405;28;20270;-59
2023/09/12 13:43:07;;;;;;;6.20;2.80;;;;;;;19.31;100.00;100159.00;5061658;28;20286;-59
2023/09/12 13:45:38;;;;;;;6.00;2.30;;;;;;;18.88;100.00;100081.88;5071604;28;20278;-58
2023/09/12 13:48:12;;;;;;;8.70;3.10;;;;;;;19.09;100.00;100119.56;5060551;28;20291;-58
2023/09/12 13:50:44;;;;;;;6.90;3.13;;;;;;;19.34;100.00;100170.25;5071520;28;20748;-59
2023/09/12 13:53:15;;;;;;;9.13;3.47;;;;;;;19.20;100.00;100145.47;5061670;28;20300;-59
2023/09/12 13:55:49;;;;;;;10.80;4.33;;;;;;;19.34;100.00;100159.66;5051894;28;20290;-59
2023/09/12 13:58:40;;;;;;;6.13;2.80;;;;;;;19.34;100.00;100170.25;5041458;28;20286;-56